sensor_id;sensor_type;location;lat;lon;timestamp;P1;durP1;ratioP1;P2;durP2;ratioP2
12660;SDS011;39039;51.802;5.710;2022-12-07T00:00:17;12.37;;;8.03;;
12660;SDS011;39039;51.802;5.710;2022-12-07T00:02:45;11.67;;;7.73;;
12660;SDS011;39039;51.802;5.710;2022-12-07T00:05:13;13.17;;;8.20;;
12660;SDS011;39039;51.802;5.710;2022-12-07T00:07:39;15.30;;;8.23;;
12660;SDS011;39039;51.802;5.710;2022-12-07T00:10:09;14.93;;;8.23;;
12660;SDS011;39039;51.802;5.710;2022-12-07T00:12:36;17.87;;;7.23;;
12660;SDS011;39039;51.802;5.710;2022-12-07T00:15:03;13.33;;;7.70;;
12660;SDS011;39039;51.802;5.710;2022-12-07T00:17:31;11.20;;;7.23;;
12660;SDS011;39039;51.802;5.710;2022-12-07T00:19:58;13.33;;;7.33;;
12660;SDS011;39039;51.802;5.710;2022-12-07T00:22:27;13.20;;;6.77;;
12660;SDS011;39039;51.802;5.710;2022-12-07T00:24:54;15.00;;;7.30;;
12660;SDS011;39039;51.802;5.710;2022-12-07T00:27:21;9.03;;;5.80;;
12660;SDS011;39039;51.802;5.710;2022-12-07T00:29:48;11.77;;;7.13;;
12660;SDS011;39039;51.802;5.710;2022-12-07T00:32:15;10.37;;;6.93;;
12660;SDS011;39039;51.802;5.710;2022-12-07T00:34:42;11.47;;;6.80;;
12660;SDS011;39039;51.802;5.710;2022-12-07T00:37:09;12.50;;;6.97;;
12660;SDS011;39039;51.802;5.710;2022-12-07T00:39:38;12.87;;;6.63;;
12660;SDS011;39039;51.802;5.710;2022-12-07T00:42:06;11.53;;;7.00;;
12660;SDS011;39039;51.802;5.710;2022-12-07T00:44:33;12.23;;;6.83;;
12660;SDS011;39039;51.802;5.710;2022-12-07T00:46:59;9.20;;;6.40;;
12660;SDS011;39039;51.802;5.710;2022-12-07T00:49:26;12.30;;;6.63;;
12660;SDS011;39039;51.802;5.710;2022-12-07T00:51:53;9.43;;;6.13;;
12660;SDS011;39039;51.802;5.710;2022-12-07T00:54:20;13.20;;;6.77;;
12660;SDS011;39039;51.802;5.710;2022-12-07T00:56:49;16.57;;;7.30;;
12660;SDS011;39039;51.802;5.710;2022-12-07T00:59:16;11.83;;;7.00;;
12660;SDS011;39039;51.802;5.710;2022-12-07T01:01:43;11.27;;;6.83;;
12660;SDS011;39039;51.802;5.710;2022-12-07T01:04:10;11.57;;;6.93;;
12660;SDS011;39039;51.802;5.710;2022-12-07T01:06:37;10.83;;;7.67;;
12660;SDS011;39039;51.802;5.710;2022-12-07T01:09:07;12.73;;;7.00;;
12660;SDS011;39039;51.802;5.710;2022-12-07T01:11:34;9.73;;;6.43;;
12660;SDS011;39039;51.802;5.710;2022-12-07T01:14:03;11.33;;;6.93;;
12660;SDS011;39039;51.802;5.710;2022-12-07T01:16:30;13.67;;;7.77;;
12660;SDS011;39039;51.802;5.710;2022-12-07T01:18:58;12.10;;;7.10;;
12660;SDS011;39039;51.802;5.710;2022-12-07T01:21:26;12.13;;;7.43;;
12660;SDS011;39039;51.802;5.710;2022-12-07T01:23:54;15.83;;;7.40;;
12660;SDS011;39039;51.802;5.710;2022-12-07T01:26:22;15.43;;;7.33;;
12660;SDS011;39039;51.802;5.710;2022-12-07T01:28:50;12.30;;;7.00;;
12660;SDS011;39039;51.802;5.710;2022-12-07T01:31:21;10.07;;;6.43;;
12660;SDS011;39039;51.802;5.710;2022-12-07T01:33:49;16.97;;;7.00;;
12660;SDS011;39039;51.802;5.710;2022-12-07T01:36:17;15.97;;;6.70;;
12660;SDS011;39039;51.802;5.710;2022-12-07T01:38:45;12.10;;;6.73;;
12660;SDS011;39039;51.802;5.710;2022-12-07T01:41:12;11.07;;;6.60;;
12660;SDS011;39039;51.802;5.710;2022-12-07T01:44:05;14.60;;;7.63;;
12660;SDS011;39039;51.802;5.710;2022-12-07T01:46:35;13.50;;;6.90;;
12660;SDS011;39039;51.802;5.710;2022-12-07T01:49:08;14.57;;;7.63;;
12660;SDS011;39039;51.802;5.710;2022-12-07T01:51:37;15.43;;;7.47;;
12660;SDS011;39039;51.802;5.710;2022-12-07T01:54:06;11.10;;;6.57;;
12660;SDS011;39039;51.802;5.710;2022-12-07T01:56:34;16.37;;;7.63;;
12660;SDS011;39039;51.802;5.710;2022-12-07T01:59:01;14.23;;;7.13;;
12660;SDS011;39039;51.802;5.710;2022-12-07T02:01:28;12.00;;;7.17;;
12660;SDS011;39039;51.802;5.710;2022-12-07T02:03:56;13.97;;;7.10;;
12660;SDS011;39039;51.802;5.710;2022-12-07T02:06:25;10.77;;;7.20;;
12660;SDS011;39039;51.802;5.710;2022-12-07T02:08:52;13.00;;;7.47;;
12660;SDS011;39039;51.802;5.710;2022-12-07T02:11:20;10.43;;;6.80;;
12660;SDS011;39039;51.802;5.710;2022-12-07T02:13:47;13.97;;;6.77;;
12660;SDS011;39039;51.802;5.710;2022-12-07T02:16:18;15.27;;;7.20;;
12660;SDS011;39039;51.802;5.710;2022-12-07T02:18:51;16.87;;;7.40;;
12660;SDS011;39039;51.802;5.710;2022-12-07T02:21:32;14.27;;;6.90;;
12660;SDS011;39039;51.802;5.710;2022-12-07T02:27:01;14.10;;;7.03;;
12660;SDS011;39039;51.802;5.710;2022-12-07T02:29:31;14.27;;;7.03;;
12660;SDS011;39039;51.802;5.710;2022-12-07T02:32:01;11.27;;;6.40;;
12660;SDS011;39039;51.802;5.710;2022-12-07T02:34:33;10.17;;;6.50;;
12660;SDS011;39039;51.802;5.710;2022-12-07T02:37:03;16.10;;;6.63;;
12660;SDS011;39039;51.802;5.710;2022-12-07T02:39:37;16.93;;;6.73;;
12660;SDS011;39039;51.802;5.710;2022-12-07T02:42:08;12.50;;;6.27;;
12660;SDS011;39039;51.802;5.710;2022-12-07T02:44:37;14.97;;;6.27;;
12660;SDS011;39039;51.802;5.710;2022-12-07T02:47:05;8.83;;;5.73;;
12660;SDS011;39039;51.802;5.710;2022-12-07T02:49:34;13.13;;;5.60;;
12660;SDS011;39039;51.802;5.710;2022-12-07T02:52:03;9.63;;;5.87;;
12660;SDS011;39039;51.802;5.710;2022-12-07T02:54:33;12.70;;;6.20;;
12660;SDS011;39039;51.802;5.710;2022-12-07T02:57:02;9.93;;;5.47;;
12660;SDS011;39039;51.802;5.710;2022-12-07T02:59:36;8.60;;;5.47;;
12660;SDS011;39039;51.802;5.710;2022-12-07T03:02:13;7.80;;;5.30;;
12660;SDS011;39039;51.802;5.710;2022-12-07T03:04:45;7.90;;;4.77;;
12660;SDS011;39039;51.802;5.710;2022-12-07T03:07:18;10.97;;;4.97;;
12660;SDS011;39039;51.802;5.710;2022-12-07T03:09:50;13.67;;;4.97;;
12660;SDS011;39039;51.802;5.710;2022-12-07T03:12:18;9.77;;;5.23;;
12660;SDS011;39039;51.802;5.710;2022-12-07T03:14:49;12.70;;;5.10;;
12660;SDS011;39039;51.802;5.710;2022-12-07T03:17:19;8.80;;;5.30;;
12660;SDS011;39039;51.802;5.710;2022-12-07T03:19:47;8.90;;;5.10;;
12660;SDS011;39039;51.802;5.710;2022-12-07T03:22:15;9.63;;;5.37;;
12660;SDS011;39039;51.802;5.710;2022-12-07T03:24:46;8.33;;;5.20;;
12660;SDS011;39039;51.802;5.710;2022-12-07T03:27:15;16.83;;;5.77;;
12660;SDS011;39039;51.802;5.710;2022-12-07T03:29:46;11.10;;;5.47;;
12660;SDS011;39039;51.802;5.710;2022-12-07T03:32:15;12.80;;;5.40;;
12660;SDS011;39039;51.802;5.710;2022-12-07T03:34:46;7.77;;;5.10;;
12660;SDS011;39039;51.802;5.710;2022-12-07T03:37:17;11.30;;;5.40;;
12660;SDS011;39039;51.802;5.710;2022-12-07T03:39:46;8.07;;;5.27;;
12660;SDS011;39039;51.802;5.710;2022-12-07T03:42:22;12.13;;;5.30;;
12660;SDS011;39039;51.802;5.710;2022-12-07T03:44:50;9.53;;;4.73;;
12660;SDS011;39039;51.802;5.710;2022-12-07T03:47:20;15.23;;;5.27;;
12660;SDS011;39039;51.802;5.710;2022-12-07T03:49:55;11.20;;;4.80;;
12660;SDS011;39039;51.802;5.710;2022-12-07T03:52:26;8.27;;;4.60;;
12660;SDS011;39039;51.802;5.710;2022-12-07T03:54:56;11.97;;;4.43;;
12660;SDS011;39039;51.802;5.710;2022-12-07T03:57:24;8.57;;;4.23;;
12660;SDS011;39039;51.802;5.710;2022-12-07T03:59:53;10.63;;;4.20;;
12660;SDS011;39039;51.802;5.710;2022-12-07T04:02:21;11.67;;;4.57;;
12660;SDS011;39039;51.802;5.710;2022-12-07T04:04:49;7.70;;;4.30;;
12660;SDS011;39039;51.802;5.710;2022-12-07T04:07:17;7.27;;;4.27;;
12660;SDS011;39039;51.802;5.710;2022-12-07T04:09:44;10.77;;;4.63;;
12660;SDS011;39039;51.802;5.710;2022-12-07T04:12:12;12.73;;;4.60;;
12660;SDS011;39039;51.802;5.710;2022-12-07T04:14:41;8.40;;;4.50;;
12660;SDS011;39039;51.802;5.710;2022-12-07T04:17:08;12.20;;;3.97;;
12660;SDS011;39039;51.802;5.710;2022-12-07T04:19:35;9.90;;;4.23;;
12660;SDS011;39039;51.802;5.710;2022-12-07T04:22:03;7.00;;;3.37;;
12660;SDS011;39039;51.802;5.710;2022-12-07T04:24:32;6.87;;;3.53;;
12660;SDS011;39039;51.802;5.710;2022-12-07T04:26:59;9.03;;;3.60;;
12660;SDS011;39039;51.802;5.710;2022-12-07T04:29:26;5.47;;;2.73;;
12660;SDS011;39039;51.802;5.710;2022-12-07T04:31:53;5.30;;;3.43;;
12660;SDS011;39039;51.802;5.710;2022-12-07T04:34:20;6.63;;;3.40;;
12660;SDS011;39039;51.802;5.710;2022-12-07T04:36:48;8.50;;;3.20;;
12660;SDS011;39039;51.802;5.710;2022-12-07T04:39:17;7.77;;;3.37;;
12660;SDS011;39039;51.802;5.710;2022-12-07T04:41:47;9.10;;;3.33;;
12660;SDS011;39039;51.802;5.710;2022-12-07T04:44:14;8.37;;;3.30;;
12660;SDS011;39039;51.802;5.710;2022-12-07T04:46:42;5.50;;;3.03;;
12660;SDS011;39039;51.802;5.710;2022-12-07T04:49:09;6.60;;;2.77;;
12660;SDS011;39039;51.802;5.710;2022-12-07T04:51:36;8.50;;;3.53;;
12660;SDS011;39039;51.802;5.710;2022-12-07T04:54:03;5.97;;;2.90;;
12660;SDS011;39039;51.802;5.710;2022-12-07T04:56:30;7.77;;;3.00;;
12660;SDS011;39039;51.802;5.710;2022-12-07T04:58:59;5.77;;;2.97;;
12660;SDS011;39039;51.802;5.710;2022-12-07T05:01:26;4.27;;;2.90;;
12660;SDS011;39039;51.802;5.710;2022-12-07T05:03:53;3.67;;;2.70;;
12660;SDS011;39039;51.802;5.710;2022-12-07T05:06:20;4.10;;;2.90;;
12660;SDS011;39039;51.802;5.710;2022-12-07T05:08:47;4.63;;;2.83;;
12660;SDS011;39039;51.802;5.710;2022-12-07T05:11:15;9.07;;;3.27;;
12660;SDS011;39039;51.802;5.710;2022-12-07T05:13:56;6.17;;;2.77;;
12660;SDS011;39039;51.802;5.710;2022-12-07T05:16:24;6.17;;;2.63;;
12660;SDS011;39039;51.802;5.710;2022-12-07T05:18:51;11.50;;;2.90;;
12660;SDS011;39039;51.802;5.710;2022-12-07T05:21:20;6.03;;;2.47;;
12660;SDS011;39039;51.802;5.710;2022-12-07T05:23:48;4.53;;;2.43;;
12660;SDS011;39039;51.802;5.710;2022-12-07T05:26:15;5.17;;;2.00;;
12660;SDS011;39039;51.802;5.710;2022-12-07T05:28:42;9.23;;;2.33;;
12660;SDS011;39039;51.802;5.710;2022-12-07T05:31:09;5.63;;;2.00;;
12660;SDS011;39039;51.802;5.710;2022-12-07T05:33:37;7.60;;;2.37;;
12660;SDS011;39039;51.802;5.710;2022-12-07T05:36:05;4.87;;;1.90;;
12660;SDS011;39039;51.802;5.710;2022-12-07T05:38:32;14.17;;;2.10;;
12660;SDS011;39039;51.802;5.710;2022-12-07T05:41:00;4.83;;;1.80;;
12660;SDS011;39039;51.802;5.710;2022-12-07T05:43:27;5.07;;;2.10;;
12660;SDS011;39039;51.802;5.710;2022-12-07T05:45:55;6.20;;;2.33;;
12660;SDS011;39039;51.802;5.710;2022-12-07T05:48:24;5.37;;;2.27;;
12660;SDS011;39039;51.802;5.710;2022-12-07T05:50:52;5.93;;;2.57;;
12660;SDS011;39039;51.802;5.710;2022-12-07T05:53:19;4.60;;;2.20;;
12660;SDS011;39039;51.802;5.710;2022-12-07T05:55:46;8.93;;;2.37;;
12660;SDS011;39039;51.802;5.710;2022-12-07T05:58:19;8.00;;;2.63;;
12660;SDS011;39039;51.802;5.710;2022-12-07T06:01:04;4.33;;;2.43;;
12660;SDS011;39039;51.802;5.710;2022-12-07T06:03:30;5.73;;;2.20;;
12660;SDS011;39039;51.802;5.710;2022-12-07T06:05:59;8.93;;;2.50;;
12660;SDS011;39039;51.802;5.710;2022-12-07T06:08:26;4.67;;;2.33;;
12660;SDS011;39039;51.802;5.710;2022-12-07T06:10:55;7.13;;;2.27;;
12660;SDS011;39039;51.802;5.710;2022-12-07T06:13:36;6.50;;;2.30;;
12660;SDS011;39039;51.802;5.710;2022-12-07T06:16:03;5.00;;;2.50;;
12660;SDS011;39039;51.802;5.710;2022-12-07T06:18:30;6.83;;;2.27;;
12660;SDS011;39039;51.802;5.710;2022-12-07T06:20:58;10.60;;;2.53;;
12660;SDS011;39039;51.802;5.710;2022-12-07T06:23:26;5.00;;;2.17;;
12660;SDS011;39039;51.802;5.710;2022-12-07T06:25:53;5.17;;;1.80;;
12660;SDS011;39039;51.802;5.710;2022-12-07T06:28:20;9.57;;;2.70;;
12660;SDS011;39039;51.802;5.710;2022-12-07T06:30:47;7.30;;;2.03;;
12660;SDS011;39039;51.802;5.710;2022-12-07T06:33:14;6.33;;;2.40;;
12660;SDS011;39039;51.802;5.710;2022-12-07T06:35:41;3.33;;;1.87;;
12660;SDS011;39039;51.802;5.710;2022-12-07T06:38:09;4.13;;;1.93;;
12660;SDS011;39039;51.802;5.710;2022-12-07T06:40:36;6.70;;;2.37;;
12660;SDS011;39039;51.802;5.710;2022-12-07T06:43:03;8.23;;;2.17;;
12660;SDS011;39039;51.802;5.710;2022-12-07T06:45:30;4.87;;;2.53;;
12660;SDS011;39039;51.802;5.710;2022-12-07T06:47:58;9.43;;;2.30;;
12660;SDS011;39039;51.802;5.710;2022-12-07T06:50:25;10.57;;;1.90;;
12660;SDS011;39039;51.802;5.710;2022-12-07T06:52:52;9.43;;;2.50;;
12660;SDS011;39039;51.802;5.710;2022-12-07T06:55:20;6.10;;;2.40;;
12660;SDS011;39039;51.802;5.710;2022-12-07T06:57:47;4.47;;;2.40;;
12660;SDS011;39039;51.802;5.710;2022-12-07T07:00:14;5.57;;;2.53;;
12660;SDS011;39039;51.802;5.710;2022-12-07T07:02:41;5.80;;;2.47;;
12660;SDS011;39039;51.802;5.710;2022-12-07T07:05:08;6.13;;;2.57;;
12660;SDS011;39039;51.802;5.710;2022-12-07T07:07:35;6.00;;;2.83;;
12660;SDS011;39039;51.802;5.710;2022-12-07T07:10:03;8.67;;;2.37;;
12660;SDS011;39039;51.802;5.710;2022-12-07T07:12:31;12.00;;;2.77;;
12660;SDS011;39039;51.802;5.710;2022-12-07T07:14:59;6.80;;;2.20;;
12660;SDS011;39039;51.802;5.710;2022-12-07T07:17:26;5.00;;;2.50;;
12660;SDS011;39039;51.802;5.710;2022-12-07T07:19:53;3.80;;;2.23;;
12660;SDS011;39039;51.802;5.710;2022-12-07T07:22:20;11.30;;;3.00;;
12660;SDS011;39039;51.802;5.710;2022-12-07T07:24:47;7.03;;;2.90;;
12660;SDS011;39039;51.802;5.710;2022-12-07T07:27:14;7.27;;;2.70;;
12660;SDS011;39039;51.802;5.710;2022-12-07T07:29:43;6.93;;;2.20;;
12660;SDS011;39039;51.802;5.710;2022-12-07T07:32:10;7.97;;;2.80;;
12660;SDS011;39039;51.802;5.710;2022-12-07T07:34:37;9.10;;;3.10;;
12660;SDS011;39039;51.802;5.710;2022-12-07T07:37:04;6.57;;;2.70;;
12660;SDS011;39039;51.802;5.710;2022-12-07T07:39:31;7.27;;;2.70;;
12660;SDS011;39039;51.802;5.710;2022-12-07T07:41:58;9.60;;;2.90;;
12660;SDS011;39039;51.802;5.710;2022-12-07T07:44:25;5.90;;;2.73;;
12660;SDS011;39039;51.802;5.710;2022-12-07T07:46:54;12.73;;;2.53;;
12660;SDS011;39039;51.802;5.710;2022-12-07T07:49:21;10.90;;;3.07;;
12660;SDS011;39039;51.802;5.710;2022-12-07T07:51:48;6.17;;;2.23;;
12660;SDS011;39039;51.802;5.710;2022-12-07T07:54:15;9.73;;;2.83;;
12660;SDS011;39039;51.802;5.710;2022-12-07T07:56:42;6.20;;;2.43;;
12660;SDS011;39039;51.802;5.710;2022-12-07T07:59:09;7.43;;;2.57;;
12660;SDS011;39039;51.802;5.710;2022-12-07T08:01:36;6.90;;;2.17;;
12660;SDS011;39039;51.802;5.710;2022-12-07T08:04:05;8.40;;;2.47;;
12660;SDS011;39039;51.802;5.710;2022-12-07T08:06:32;10.50;;;2.63;;
12660;SDS011;39039;51.802;5.710;2022-12-07T08:08:59;5.67;;;2.33;;
12660;SDS011;39039;51.802;5.710;2022-12-07T08:11:25;9.37;;;2.43;;
12660;SDS011;39039;51.802;5.710;2022-12-07T08:13:53;8.63;;;2.70;;
12660;SDS011;39039;51.802;5.710;2022-12-07T08:16:20;6.93;;;2.27;;
12660;SDS011;39039;51.802;5.710;2022-12-07T08:18:47;8.80;;;2.87;;
12660;SDS011;39039;51.802;5.710;2022-12-07T08:21:15;8.50;;;2.07;;
12660;SDS011;39039;51.802;5.710;2022-12-07T08:23:42;7.40;;;3.03;;
12660;SDS011;39039;51.802;5.710;2022-12-07T08:26:12;7.73;;;2.20;;
12660;SDS011;39039;51.802;5.710;2022-12-07T08:28:40;7.83;;;2.90;;
12660;SDS011;39039;51.802;5.710;2022-12-07T08:31:08;9.77;;;2.83;;
12660;SDS011;39039;51.802;5.710;2022-12-07T08:33:39;6.43;;;2.80;;
12660;SDS011;39039;51.802;5.710;2022-12-07T08:36:10;6.93;;;2.60;;
12660;SDS011;39039;51.802;5.710;2022-12-07T08:38:39;7.67;;;2.70;;
12660;SDS011;39039;51.802;5.710;2022-12-07T08:41:07;7.40;;;2.70;;
12660;SDS011;39039;51.802;5.710;2022-12-07T08:43:34;6.83;;;2.90;;
12660;SDS011;39039;51.802;5.710;2022-12-07T08:46:06;4.93;;;1.83;;
12660;SDS011;39039;51.802;5.710;2022-12-07T08:48:33;6.27;;;2.60;;
12660;SDS011;39039;51.802;5.710;2022-12-07T08:51:01;10.53;;;2.67;;
12660;SDS011;39039;51.802;5.710;2022-12-07T08:53:28;6.10;;;2.73;;
12660;SDS011;39039;51.802;5.710;2022-12-07T08:55:58;7.40;;;2.70;;
12660;SDS011;39039;51.802;5.710;2022-12-07T08:58:25;6.17;;;2.50;;
12660;SDS011;39039;51.802;5.710;2022-12-07T09:00:52;8.40;;;2.63;;
12660;SDS011;39039;51.802;5.710;2022-12-07T09:03:19;5.43;;;2.37;;
12660;SDS011;39039;51.802;5.710;2022-12-07T09:05:46;4.97;;;2.57;;
12660;SDS011;39039;51.802;5.710;2022-12-07T09:08:13;5.80;;;2.07;;
12660;SDS011;39039;51.802;5.710;2022-12-07T09:10:41;7.83;;;2.87;;
12660;SDS011;39039;51.802;5.710;2022-12-07T09:13:09;13.10;;;2.90;;
12660;SDS011;39039;51.802;5.710;2022-12-07T09:15:36;7.93;;;2.57;;
12660;SDS011;39039;51.802;5.710;2022-12-07T09:18:03;11.63;;;2.87;;
12660;SDS011;39039;51.802;5.710;2022-12-07T09:20:30;11.43;;;3.07;;
12660;SDS011;39039;51.802;5.710;2022-12-07T09:22:58;8.47;;;2.50;;
12660;SDS011;39039;51.802;5.710;2022-12-07T09:25:34;8.90;;;2.10;;
12660;SDS011;39039;51.802;5.710;2022-12-07T09:28:06;7.67;;;2.30;;
12660;SDS011;39039;51.802;5.710;2022-12-07T09:30:37;5.00;;;2.07;;
12660;SDS011;39039;51.802;5.710;2022-12-07T09:33:04;7.13;;;2.50;;
12660;SDS011;39039;51.802;5.710;2022-12-07T09:35:31;6.20;;;2.37;;
12660;SDS011;39039;51.802;5.710;2022-12-07T09:37:58;10.53;;;2.27;;
12660;SDS011;39039;51.802;5.710;2022-12-07T09:40:25;6.53;;;2.47;;
12660;SDS011;39039;51.802;5.710;2022-12-07T09:42:53;9.73;;;2.63;;
12660;SDS011;39039;51.802;5.710;2022-12-07T09:45:22;8.17;;;2.40;;
12660;SDS011;39039;51.802;5.710;2022-12-07T09:47:52;4.97;;;1.83;;
12660;SDS011;39039;51.802;5.710;2022-12-07T09:50:20;9.07;;;2.63;;
12660;SDS011;39039;51.802;5.710;2022-12-07T09:52:48;7.10;;;2.03;;
12660;SDS011;39039;51.802;5.710;2022-12-07T09:55:19;6.73;;;1.87;;
12660;SDS011;39039;51.802;5.710;2022-12-07T09:57:48;7.00;;;2.37;;
12660;SDS011;39039;51.802;5.710;2022-12-07T10:00:17;4.10;;;2.00;;
12660;SDS011;39039;51.802;5.710;2022-12-07T10:02:47;7.53;;;1.90;;
12660;SDS011;39039;51.802;5.710;2022-12-07T10:05:16;7.63;;;1.73;;
12660;SDS011;39039;51.802;5.710;2022-12-07T10:07:45;10.33;;;1.90;;
12660;SDS011;39039;51.802;5.710;2022-12-07T10:10:14;6.37;;;1.90;;
12660;SDS011;39039;51.802;5.710;2022-12-07T10:12:57;5.07;;;1.63;;
12660;SDS011;39039;51.802;5.710;2022-12-07T10:15:44;3.97;;;1.27;;
12660;SDS011;39039;51.802;5.710;2022-12-07T10:18:17;3.33;;;1.23;;
12660;SDS011;39039;51.802;5.710;2022-12-07T10:20:45;4.20;;;1.47;;
12660;SDS011;39039;51.802;5.710;2022-12-07T10:23:15;5.27;;;1.20;;
12660;SDS011;39039;51.802;5.710;2022-12-07T10:25:43;4.40;;;1.70;;
12660;SDS011;39039;51.802;5.710;2022-12-07T10:28:12;6.63;;;1.60;;
12660;SDS011;39039;51.802;5.710;2022-12-07T10:30:46;7.60;;;2.03;;
12660;SDS011;39039;51.802;5.710;2022-12-07T10:33:27;3.77;;;1.43;;
12660;SDS011;39039;51.802;5.710;2022-12-07T10:35:56;7.57;;;1.60;;
12660;SDS011;39039;51.802;5.710;2022-12-07T10:38:23;4.43;;;1.83;;
12660;SDS011;39039;51.802;5.710;2022-12-07T10:41:02;8.60;;;2.13;;
12660;SDS011;39039;51.802;5.710;2022-12-07T10:43:29;8.53;;;1.60;;
12660;SDS011;39039;51.802;5.710;2022-12-07T10:46:07;4.70;;;1.77;;
12660;SDS011;39039;51.802;5.710;2022-12-07T10:48:41;5.50;;;1.93;;
12660;SDS011;39039;51.802;5.710;2022-12-07T10:51:15;9.43;;;1.60;;
12660;SDS011;39039;51.802;5.710;2022-12-07T10:53:51;4.50;;;1.40;;
12660;SDS011;39039;51.802;5.710;2022-12-07T10:56:26;8.70;;;1.60;;
12660;SDS011;39039;51.802;5.710;2022-12-07T10:59:00;3.10;;;1.33;;
12660;SDS011;39039;51.802;5.710;2022-12-07T11:01:36;12.97;;;4.37;;
12660;SDS011;39039;51.802;5.710;2022-12-07T11:04:15;7.57;;;1.60;;
12660;SDS011;39039;51.802;5.710;2022-12-07T11:06:46;8.17;;;1.90;;
12660;SDS011;39039;51.802;5.710;2022-12-07T11:09:27;5.03;;;1.47;;
12660;SDS011;39039;51.802;5.710;2022-12-07T11:11:59;6.23;;;1.60;;
12660;SDS011;39039;51.802;5.710;2022-12-07T11:14:33;7.77;;;1.40;;
12660;SDS011;39039;51.802;5.710;2022-12-07T11:17:04;6.07;;;1.60;;
12660;SDS011;39039;51.802;5.710;2022-12-07T11:19:42;5.70;;;1.47;;
12660;SDS011;39039;51.802;5.710;2022-12-07T11:22:23;8.97;;;1.57;;
12660;SDS011;39039;51.802;5.710;2022-12-07T11:24:56;6.13;;;1.60;;
12660;SDS011;39039;51.802;5.710;2022-12-07T11:27:29;5.17;;;1.30;;
12660;SDS011;39039;51.802;5.710;2022-12-07T11:30:08;4.47;;;1.30;;
12660;SDS011;39039;51.802;5.710;2022-12-07T11:32:41;4.90;;;1.30;;
12660;SDS011;39039;51.802;5.710;2022-12-07T11:35:11;5.23;;;1.23;;
12660;SDS011;39039;51.802;5.710;2022-12-07T11:37:42;3.57;;;0.90;;
12660;SDS011;39039;51.802;5.710;2022-12-07T11:40:13;2.67;;;1.30;;
12660;SDS011;39039;51.802;5.710;2022-12-07T11:42:42;5.17;;;1.20;;
12660;SDS011;39039;51.802;5.710;2022-12-07T11:45:13;12.47;;;1.80;;
12660;SDS011;39039;51.802;5.710;2022-12-07T11:47:44;2.67;;;1.43;;
12660;SDS011;39039;51.802;5.710;2022-12-07T11:50:16;3.90;;;1.43;;
12660;SDS011;39039;51.802;5.710;2022-12-07T11:52:49;4.50;;;1.77;;
12660;SDS011;39039;51.802;5.710;2022-12-07T11:55:19;6.70;;;1.60;;
12660;SDS011;39039;51.802;5.710;2022-12-07T11:57:48;5.20;;;1.33;;
12660;SDS011;39039;51.802;5.710;2022-12-07T12:00:18;7.00;;;1.60;;
12660;SDS011;39039;51.802;5.710;2022-12-07T12:02:46;6.50;;;2.10;;
12660;SDS011;39039;51.802;5.710;2022-12-07T12:05:16;10.37;;;1.30;;
12660;SDS011;39039;51.802;5.710;2022-12-07T12:07:46;6.03;;;1.70;;
12660;SDS011;39039;51.802;5.710;2022-12-07T12:10:22;8.57;;;1.97;;
12660;SDS011;39039;51.802;5.710;2022-12-07T12:13:02;4.87;;;1.50;;
12660;SDS011;39039;51.802;5.710;2022-12-07T12:15:37;8.60;;;1.50;;
12660;SDS011;39039;51.802;5.710;2022-12-07T12:18:09;2.93;;;1.47;;
12660;SDS011;39039;51.802;5.710;2022-12-07T12:20:39;7.70;;;1.70;;
12660;SDS011;39039;51.802;5.710;2022-12-07T12:23:11;5.67;;;1.53;;
12660;SDS011;39039;51.802;5.710;2022-12-07T12:25:40;3.97;;;2.07;;
12660;SDS011;39039;51.802;5.710;2022-12-07T12:28:18;5.60;;;2.30;;
12660;SDS011;39039;51.802;5.710;2022-12-07T12:30:47;6.30;;;2.07;;
12660;SDS011;39039;51.802;5.710;2022-12-07T12:33:30;5.17;;;1.63;;
12660;SDS011;39039;51.802;5.710;2022-12-07T12:38:49;5.80;;;1.60;;
12660;SDS011;39039;51.802;5.710;2022-12-07T12:43:58;6.07;;;1.60;;
12660;SDS011;39039;51.802;5.710;2022-12-07T12:46:38;2.80;;;1.50;;
12660;SDS011;39039;51.802;5.710;2022-12-07T12:55:13;4.33;;;1.43;;
12660;SDS011;39039;51.802;5.710;2022-12-07T12:57:43;4.57;;;1.23;;
12660;SDS011;39039;51.802;5.710;2022-12-07T13:00:15;7.20;;;1.37;;
12660;SDS011;39039;51.802;5.710;2022-12-07T13:02:47;4.57;;;1.13;;
12660;SDS011;39039;51.802;5.710;2022-12-07T13:05:16;4.67;;;1.67;;
12660;SDS011;39039;51.802;5.710;2022-12-07T13:07:55;4.60;;;1.40;;
12660;SDS011;39039;51.802;5.710;2022-12-07T13:16:16;2.33;;;1.07;;
12660;SDS011;39039;51.802;5.710;2022-12-07T13:18:43;3.77;;;1.03;;
12660;SDS011;39039;51.802;5.710;2022-12-07T13:23:54;4.47;;;1.10;;
12660;SDS011;39039;51.802;5.710;2022-12-07T13:26:27;3.47;;;0.80;;
12660;SDS011;39039;51.802;5.710;2022-12-07T13:29:05;5.43;;;1.20;;
12660;SDS011;39039;51.802;5.710;2022-12-07T13:31:38;3.17;;;0.70;;
12660;SDS011;39039;51.802;5.710;2022-12-07T13:36:48;4.33;;;1.00;;
12660;SDS011;39039;51.802;5.710;2022-12-07T13:39:17;3.87;;;0.90;;
12660;SDS011;39039;51.802;5.710;2022-12-07T13:41:45;1.97;;;0.70;;
12660;SDS011;39039;51.802;5.710;2022-12-07T13:44:17;5.13;;;1.30;;
12660;SDS011;39039;51.802;5.710;2022-12-07T13:46:47;4.07;;;0.93;;
12660;SDS011;39039;51.802;5.710;2022-12-07T13:49:21;6.07;;;1.10;;
12660;SDS011;39039;51.802;5.710;2022-12-07T13:51:52;5.20;;;1.20;;
12660;SDS011;39039;51.802;5.710;2022-12-07T13:54:19;10.43;;;1.33;;
12660;SDS011;39039;51.802;5.710;2022-12-07T13:56:47;4.83;;;1.20;;
12660;SDS011;39039;51.802;5.710;2022-12-07T13:59:17;2.83;;;1.20;;
12660;SDS011;39039;51.802;5.710;2022-12-07T14:01:46;5.53;;;1.50;;
12660;SDS011;39039;51.802;5.710;2022-12-07T14:04:29;6.47;;;1.57;;
12660;SDS011;39039;51.802;5.710;2022-12-07T14:07:15;6.43;;;1.53;;
12660;SDS011;39039;51.802;5.710;2022-12-07T14:09:52;4.13;;;1.60;;
12660;SDS011;39039;51.802;5.710;2022-12-07T14:12:20;2.87;;;1.30;;
12660;SDS011;39039;51.802;5.710;2022-12-07T14:14:47;4.90;;;1.33;;
12660;SDS011;39039;51.802;5.710;2022-12-07T14:17:17;3.27;;;1.40;;
12660;SDS011;39039;51.802;5.710;2022-12-07T14:19:46;4.67;;;1.37;;
12660;SDS011;39039;51.802;5.710;2022-12-07T14:22:28;5.07;;;1.43;;
12660;SDS011;39039;51.802;5.710;2022-12-07T14:25:16;5.63;;;1.17;;
12660;SDS011;39039;51.802;5.710;2022-12-07T14:27:47;5.70;;;1.27;;
12660;SDS011;39039;51.802;5.710;2022-12-07T14:30:15;4.97;;;1.33;;
12660;SDS011;39039;51.802;5.710;2022-12-07T14:32:44;8.80;;;1.80;;
12660;SDS011;39039;51.802;5.710;2022-12-07T14:35:14;6.00;;;1.53;;
12660;SDS011;39039;51.802;5.710;2022-12-07T14:37:43;4.80;;;1.33;;
12660;SDS011;39039;51.802;5.710;2022-12-07T14:42:39;3.03;;;1.33;;
12660;SDS011;39039;51.802;5.710;2022-12-07T14:45:10;2.83;;;0.80;;
12660;SDS011;39039;51.802;5.710;2022-12-07T14:47:44;10.20;;;1.03;;
12660;SDS011;39039;51.802;5.710;2022-12-07T14:50:11;4.97;;;1.10;;
12660;SDS011;39039;51.802;5.710;2022-12-07T14:52:39;6.13;;;0.93;;
12660;SDS011;39039;51.802;5.710;2022-12-07T14:55:11;3.60;;;0.87;;
12660;SDS011;39039;51.802;5.710;2022-12-07T14:57:39;2.90;;;0.70;;
12660;SDS011;39039;51.802;5.710;2022-12-07T15:00:07;2.47;;;0.77;;
12660;SDS011;39039;51.802;5.710;2022-12-07T15:02:35;1.43;;;0.63;;
12660;SDS011;39039;51.802;5.710;2022-12-07T15:05:04;1.03;;;0.50;;
12660;SDS011;39039;51.802;5.710;2022-12-07T15:07:31;2.40;;;0.90;;
12660;SDS011;39039;51.802;5.710;2022-12-07T15:09:58;1.43;;;0.70;;
12660;SDS011;39039;51.802;5.710;2022-12-07T15:12:25;4.20;;;0.60;;
12660;SDS011;39039;51.802;5.710;2022-12-07T15:14:52;4.80;;;1.07;;
12660;SDS011;39039;51.802;5.710;2022-12-07T15:17:19;4.13;;;0.70;;
12660;SDS011;39039;51.802;5.710;2022-12-07T15:19:46;6.17;;;0.77;;
12660;SDS011;39039;51.802;5.710;2022-12-07T15:22:14;3.23;;;1.00;;
12660;SDS011;39039;51.802;5.710;2022-12-07T15:24:44;2.43;;;0.77;;